sensor_id;sensor_type;location;lat;lon;timestamp;P1;durP1;ratioP1;P2;durP2;ratioP2
6354;SDS011;3210;48.708;9.030;2023-03-01T00:00:00;17.40;;;9.00;;
6354;SDS011;3210;48.708;9.030;2023-03-01T00:02:28;15.93;;;9.80;;
6354;SDS011;3210;48.708;9.030;2023-03-01T00:04:55;18.80;;;10.37;;
6354;SDS011;3210;48.708;9.030;2023-03-01T00:07:21;16.70;;;10.80;;
6354;SDS011;3210;48.708;9.030;2023-03-01T00:09:49;17.77;;;10.53;;
6354;SDS011;3210;48.708;9.030;2023-03-01T00:12:16;18.03;;;10.77;;
6354;SDS011;3210;48.708;9.030;2023-03-01T00:14:43;23.23;;;10.07;;
6354;SDS011;3210;48.708;9.030;2023-03-01T00:17:09;21.90;;;11.03;;
6354;SDS011;3210;48.708;9.030;2023-03-01T00:19:36;15.23;;;10.50;;
6354;SDS011;3210;48.708;9.030;2023-03-01T00:22:03;19.90;;;10.50;;
6354;SDS011;3210;48.708;9.030;2023-03-01T00:24:30;14.37;;;9.73;;
6354;SDS011;3210;48.708;9.030;2023-03-01T00:26:58;15.70;;;9.70;;
6354;SDS011;3210;48.708;9.030;2023-03-01T00:29:25;19.63;;;10.37;;
6354;SDS011;3210;48.708;9.030;2023-03-01T00:31:51;23.33;;;11.13;;
6354;SDS011;3210;48.708;9.030;2023-03-01T00:34:18;21.00;;;9.77;;
6354;SDS011;3210;48.708;9.030;2023-03-01T00:36:45;18.27;;;10.30;;
6354;SDS011;3210;48.708;9.030;2023-03-01T00:39:13;14.20;;;9.20;;
6354;SDS011;3210;48.708;9.030;2023-03-01T00:41:40;19.67;;;10.37;;
6354;SDS011;3210;48.708;9.030;2023-03-01T00:44:09;18.63;;;10.40;;
6354;SDS011;3210;48.708;9.030;2023-03-01T00:46:36;20.27;;;10.10;;
6354;SDS011;3210;48.708;9.030;2023-03-01T00:49:03;16.27;;;9.67;;
6354;SDS011;3210;48.708;9.030;2023-03-01T00:51:30;19.50;;;9.17;;
6354;SDS011;3210;48.708;9.030;2023-03-01T00:53:58;17.30;;;10.07;;
6354;SDS011;3210;48.708;9.030;2023-03-01T00:56:26;19.53;;;11.40;;
6354;SDS011;3210;48.708;9.030;2023-03-01T00:58:53;25.53;;;10.47;;
6354;SDS011;3210;48.708;9.030;2023-03-01T01:01:22;18.13;;;9.83;;
6354;SDS011;3210;48.708;9.030;2023-03-01T01:03:52;19.50;;;11.60;;
6354;SDS011;3210;48.708;9.030;2023-03-01T01:06:21;21.30;;;10.83;;
6354;SDS011;3210;48.708;9.030;2023-03-01T01:08:49;20.03;;;10.30;;
6354;SDS011;3210;48.708;9.030;2023-03-01T01:11:17;20.37;;;11.57;;
6354;SDS011;3210;48.708;9.030;2023-03-01T01:13:44;19.50;;;10.30;;
6354;SDS011;3210;48.708;9.030;2023-03-01T01:16:12;17.67;;;9.80;;
6354;SDS011;3210;48.708;9.030;2023-03-01T01:18:41;14.90;;;8.50;;
6354;SDS011;3210;48.708;9.030;2023-03-01T01:21:09;13.90;;;9.70;;
6354;SDS011;3210;48.708;9.030;2023-03-01T01:23:37;22.67;;;10.27;;
6354;SDS011;3210;48.708;9.030;2023-03-01T01:26:05;21.37;;;10.87;;
6354;SDS011;3210;48.708;9.030;2023-03-01T01:28:33;17.60;;;9.47;;
6354;SDS011;3210;48.708;9.030;2023-03-01T01:31:01;19.70;;;9.83;;
6354;SDS011;3210;48.708;9.030;2023-03-01T01:33:28;20.93;;;10.60;;
6354;SDS011;3210;48.708;9.030;2023-03-01T01:35:56;16.50;;;9.43;;
6354;SDS011;3210;48.708;9.030;2023-03-01T01:38:23;22.73;;;11.20;;
6354;SDS011;3210;48.708;9.030;2023-03-01T01:40:50;19.57;;;11.37;;
6354;SDS011;3210;48.708;9.030;2023-03-01T01:43:18;23.60;;;11.77;;
6354;SDS011;3210;48.708;9.030;2023-03-01T01:45:47;19.33;;;9.80;;
6354;SDS011;3210;48.708;9.030;2023-03-01T01:48:16;22.07;;;11.50;;
6354;SDS011;3210;48.708;9.030;2023-03-01T01:50:54;20.30;;;11.03;;
6354;SDS011;3210;48.708;9.030;2023-03-01T01:53:25;22.63;;;11.10;;
6354;SDS011;3210;48.708;9.030;2023-03-01T01:55:54;20.57;;;11.30;;
6354;SDS011;3210;48.708;9.030;2023-03-01T01:58:25;22.73;;;11.03;;
6354;SDS011;3210;48.708;9.030;2023-03-01T02:00:53;26.60;;;11.63;;
6354;SDS011;3210;48.708;9.030;2023-03-01T02:03:22;20.63;;;11.30;;
6354;SDS011;3210;48.708;9.030;2023-03-01T02:05:55;20.90;;;10.13;;
6354;SDS011;3210;48.708;9.030;2023-03-01T02:08:27;22.60;;;12.30;;
6354;SDS011;3210;48.708;9.030;2023-03-01T02:10:57;24.93;;;11.20;;
6354;SDS011;3210;48.708;9.030;2023-03-01T02:13:25;19.07;;;10.90;;
6354;SDS011;3210;48.708;9.030;2023-03-01T02:15:52;19.20;;;9.77;;
6354;SDS011;3210;48.708;9.030;2023-03-01T02:18:20;26.67;;;12.13;;
6354;SDS011;3210;48.708;9.030;2023-03-01T02:20:50;19.00;;;11.70;;
6354;SDS011;3210;48.708;9.030;2023-03-01T02:23:29;27.00;;;12.70;;
6354;SDS011;3210;48.708;9.030;2023-03-01T02:25:58;24.20;;;11.67;;
6354;SDS011;3210;48.708;9.030;2023-03-01T02:28:34;17.37;;;9.33;;
6354;SDS011;3210;48.708;9.030;2023-03-01T02:31:03;20.90;;;10.83;;
6354;SDS011;3210;48.708;9.030;2023-03-01T02:33:46;21.80;;;11.27;;
6354;SDS011;3210;48.708;9.030;2023-03-01T02:36:15;19.53;;;11.33;;
6354;SDS011;3210;48.708;9.030;2023-03-01T02:38:44;21.80;;;12.17;;
6354;SDS011;3210;48.708;9.030;2023-03-01T02:41:13;24.23;;;13.07;;
6354;SDS011;3210;48.708;9.030;2023-03-01T02:43:45;27.60;;;12.70;;
6354;SDS011;3210;48.708;9.030;2023-03-01T02:46:14;25.80;;;10.93;;
6354;SDS011;3210;48.708;9.030;2023-03-01T02:48:43;25.57;;;10.60;;
6354;SDS011;3210;48.708;9.030;2023-03-01T02:51:21;22.23;;;11.33;;
6354;SDS011;3210;48.708;9.030;2023-03-01T02:53:56;20.57;;;11.97;;
6354;SDS011;3210;48.708;9.030;2023-03-01T02:56:33;20.57;;;11.10;;
6354;SDS011;3210;48.708;9.030;2023-03-01T02:59:02;18.80;;;10.63;;
6354;SDS011;3210;48.708;9.030;2023-03-01T03:01:30;18.23;;;11.27;;
6354;SDS011;3210;48.708;9.030;2023-03-01T03:04:01;22.50;;;11.60;;
6354;SDS011;3210;48.708;9.030;2023-03-01T03:06:29;26.77;;;14.23;;
6354;SDS011;3210;48.708;9.030;2023-03-01T03:08:56;26.63;;;12.70;;
6354;SDS011;3210;48.708;9.030;2023-03-01T03:11:23;24.10;;;12.60;;
6354;SDS011;3210;48.708;9.030;2023-03-01T03:13:50;27.13;;;11.90;;
6354;SDS011;3210;48.708;9.030;2023-03-01T03:16:19;20.27;;;10.60;;
6354;SDS011;3210;48.708;9.030;2023-03-01T03:18:46;20.93;;;12.00;;
6354;SDS011;3210;48.708;9.030;2023-03-01T03:21:13;21.20;;;11.77;;
6354;SDS011;3210;48.708;9.030;2023-03-01T03:23:41;24.93;;;13.10;;
6354;SDS011;3210;48.708;9.030;2023-03-01T03:26:08;18.90;;;12.07;;
6354;SDS011;3210;48.708;9.030;2023-03-01T03:28:38;16.40;;;11.20;;
6354;SDS011;3210;48.708;9.030;2023-03-01T03:31:06;19.30;;;11.10;;
6354;SDS011;3210;48.708;9.030;2023-03-01T03:33:34;19.00;;;10.67;;
6354;SDS011;3210;48.708;9.030;2023-03-01T03:36:01;30.23;;;13.27;;
6354;SDS011;3210;48.708;9.030;2023-03-01T03:38:28;28.13;;;13.10;;
6354;SDS011;3210;48.708;9.030;2023-03-01T03:40:59;27.27;;;12.63;;
6354;SDS011;3210;48.708;9.030;2023-03-01T03:43:28;20.40;;;11.17;;
6354;SDS011;3210;48.708;9.030;2023-03-01T03:45:57;21.67;;;12.30;;
6354;SDS011;3210;48.708;9.030;2023-03-01T03:48:24;23.70;;;12.37;;
6354;SDS011;3210;48.708;9.030;2023-03-01T03:50:53;22.77;;;12.00;;
6354;SDS011;3210;48.708;9.030;2023-03-01T03:53:22;24.90;;;11.30;;
6354;SDS011;3210;48.708;9.030;2023-03-01T03:55:50;23.10;;;11.83;;
6354;SDS011;3210;48.708;9.030;2023-03-01T03:58:18;23.53;;;12.53;;
6354;SDS011;3210;48.708;9.030;2023-03-01T04:00:46;21.70;;;11.60;;
6354;SDS011;3210;48.708;9.030;2023-03-01T04:03:15;17.20;;;9.33;;
6354;SDS011;3210;48.708;9.030;2023-03-01T04:05:43;19.93;;;12.57;;
6354;SDS011;3210;48.708;9.030;2023-03-01T04:08:12;20.70;;;11.03;;
6354;SDS011;3210;48.708;9.030;2023-03-01T04:10:40;16.03;;;10.73;;
6354;SDS011;3210;48.708;9.030;2023-03-01T04:13:09;23.87;;;12.07;;
6354;SDS011;3210;48.708;9.030;2023-03-01T04:15:37;22.57;;;12.27;;
6354;SDS011;3210;48.708;9.030;2023-03-01T04:18:04;24.20;;;13.10;;
6354;SDS011;3210;48.708;9.030;2023-03-01T04:20:32;20.67;;;11.30;;
6354;SDS011;3210;48.708;9.030;2023-03-01T04:23:01;22.30;;;11.87;;
6354;SDS011;3210;48.708;9.030;2023-03-01T04:25:37;27.60;;;12.87;;
6354;SDS011;3210;48.708;9.030;2023-03-01T04:28:05;22.03;;;11.90;;
6354;SDS011;3210;48.708;9.030;2023-03-01T04:30:32;24.73;;;11.77;;
6354;SDS011;3210;48.708;9.030;2023-03-01T04:33:01;21.87;;;11.63;;
6354;SDS011;3210;48.708;9.030;2023-03-01T04:35:29;14.47;;;8.17;;
6354;SDS011;3210;48.708;9.030;2023-03-01T04:37:56;20.90;;;12.10;;
6354;SDS011;3210;48.708;9.030;2023-03-01T04:40:23;24.67;;;12.63;;
6354;SDS011;3210;48.708;9.030;2023-03-01T04:42:51;29.93;;;13.20;;
6354;SDS011;3210;48.708;9.030;2023-03-01T04:45:18;20.50;;;11.67;;
6354;SDS011;3210;48.708;9.030;2023-03-01T04:47:45;28.03;;;13.90;;
6354;SDS011;3210;48.708;9.030;2023-03-01T04:50:13;24.17;;;12.83;;
6354;SDS011;3210;48.708;9.030;2023-03-01T04:52:42;25.23;;;13.83;;
6354;SDS011;3210;48.708;9.030;2023-03-01T04:55:09;25.83;;;13.70;;
6354;SDS011;3210;48.708;9.030;2023-03-01T04:57:36;21.30;;;12.30;;
6354;SDS011;3210;48.708;9.030;2023-03-01T05:00:06;28.33;;;13.73;;
6354;SDS011;3210;48.708;9.030;2023-03-01T05:02:45;25.07;;;11.47;;
6354;SDS011;3210;48.708;9.030;2023-03-01T05:05:18;22.97;;;12.30;;
6354;SDS011;3210;48.708;9.030;2023-03-01T05:07:50;22.53;;;12.37;;
6354;SDS011;3210;48.708;9.030;2023-03-01T05:10:17;25.80;;;13.10;;
6354;SDS011;3210;48.708;9.030;2023-03-01T05:12:44;23.63;;;11.93;;
6354;SDS011;3210;48.708;9.030;2023-03-01T05:15:13;29.90;;;14.47;;
6354;SDS011;3210;48.708;9.030;2023-03-01T05:17:39;20.90;;;12.20;;
6354;SDS011;3210;48.708;9.030;2023-03-01T05:20:07;23.80;;;12.63;;
6354;SDS011;3210;48.708;9.030;2023-03-01T05:22:35;23.00;;;12.77;;
6354;SDS011;3210;48.708;9.030;2023-03-01T05:25:03;23.90;;;13.67;;
6354;SDS011;3210;48.708;9.030;2023-03-01T05:27:30;24.90;;;13.90;;
6354;SDS011;3210;48.708;9.030;2023-03-01T05:29:57;26.30;;;14.17;;
6354;SDS011;3210;48.708;9.030;2023-03-01T05:32:25;29.60;;;13.83;;
6354;SDS011;3210;48.708;9.030;2023-03-01T05:34:52;22.53;;;11.60;;
6354;SDS011;3210;48.708;9.030;2023-03-01T05:37:20;19.47;;;13.77;;
6354;SDS011;3210;48.708;9.030;2023-03-01T05:39:46;34.63;;;15.37;;
6354;SDS011;3210;48.708;9.030;2023-03-01T05:42:15;24.73;;;13.40;;
6354;SDS011;3210;48.708;9.030;2023-03-01T05:44:42;27.00;;;11.83;;
6354;SDS011;3210;48.708;9.030;2023-03-01T05:47:09;25.10;;;13.70;;
6354;SDS011;3210;48.708;9.030;2023-03-01T05:49:37;21.93;;;12.73;;
6354;SDS011;3210;48.708;9.030;2023-03-01T05:52:04;22.27;;;12.80;;
6354;SDS011;3210;48.708;9.030;2023-03-01T05:54:31;23.13;;;13.60;;
6354;SDS011;3210;48.708;9.030;2023-03-01T05:56:58;25.77;;;14.10;;
6354;SDS011;3210;48.708;9.030;2023-03-01T05:59:24;23.70;;;13.27;;
6354;SDS011;3210;48.708;9.030;2023-03-01T06:01:51;28.63;;;13.70;;
6354;SDS011;3210;48.708;9.030;2023-03-01T06:04:18;23.77;;;13.23;;
6354;SDS011;3210;48.708;9.030;2023-03-01T06:06:47;25.70;;;13.27;;
6354;SDS011;3210;48.708;9.030;2023-03-01T06:09:15;23.97;;;13.10;;
6354;SDS011;3210;48.708;9.030;2023-03-01T06:11:41;26.87;;;14.77;;
6354;SDS011;3210;48.708;9.030;2023-03-01T06:14:08;25.93;;;14.03;;
6354;SDS011;3210;48.708;9.030;2023-03-01T06:16:37;26.80;;;13.17;;
6354;SDS011;3210;48.708;9.030;2023-03-01T06:19:04;25.93;;;14.47;;
6354;SDS011;3210;48.708;9.030;2023-03-01T06:21:31;22.13;;;14.77;;
6354;SDS011;3210;48.708;9.030;2023-03-01T06:23:59;27.90;;;13.47;;
6354;SDS011;3210;48.708;9.030;2023-03-01T06:26:26;29.57;;;13.97;;
6354;SDS011;3210;48.708;9.030;2023-03-01T06:28:53;23.40;;;13.23;;
6354;SDS011;3210;48.708;9.030;2023-03-01T06:31:20;19.97;;;11.17;;
6354;SDS011;3210;48.708;9.030;2023-03-01T06:33:46;23.47;;;14.03;;
6354;SDS011;3210;48.708;9.030;2023-03-01T06:36:13;27.67;;;13.70;;
6354;SDS011;3210;48.708;9.030;2023-03-01T06:38:43;21.43;;;12.30;;
6354;SDS011;3210;48.708;9.030;2023-03-01T06:41:11;24.47;;;14.40;;
6354;SDS011;3210;48.708;9.030;2023-03-01T06:43:38;25.37;;;13.37;;
6354;SDS011;3210;48.708;9.030;2023-03-01T06:46:05;23.33;;;12.50;;
6354;SDS011;3210;48.708;9.030;2023-03-01T06:48:32;19.60;;;12.40;;
6354;SDS011;3210;48.708;9.030;2023-03-01T06:50:59;24.37;;;12.50;;
6354;SDS011;3210;48.708;9.030;2023-03-01T06:53:26;21.27;;;12.67;;
6354;SDS011;3210;48.708;9.030;2023-03-01T06:55:54;25.13;;;13.47;;
6354;SDS011;3210;48.708;9.030;2023-03-01T06:58:22;27.27;;;13.63;;
6354;SDS011;3210;48.708;9.030;2023-03-01T07:00:49;37.47;;;13.43;;
6354;SDS011;3210;48.708;9.030;2023-03-01T07:03:16;22.80;;;12.53;;
6354;SDS011;3210;48.708;9.030;2023-03-01T07:05:43;20.33;;;13.13;;
6354;SDS011;3210;48.708;9.030;2023-03-01T07:08:10;27.70;;;13.23;;
6354;SDS011;3210;48.708;9.030;2023-03-01T07:10:37;28.20;;;14.93;;
6354;SDS011;3210;48.708;9.030;2023-03-01T07:13:03;20.57;;;13.20;;
6354;SDS011;3210;48.708;9.030;2023-03-01T07:15:33;23.17;;;11.57;;
6354;SDS011;3210;48.708;9.030;2023-03-01T07:18:00;20.00;;;11.30;;
6354;SDS011;3210;48.708;9.030;2023-03-01T07:20:27;26.20;;;13.37;;
6354;SDS011;3210;48.708;9.030;2023-03-01T07:22:54;19.17;;;10.47;;
6354;SDS011;3210;48.708;9.030;2023-03-01T07:25:23;16.57;;;8.60;;
6354;SDS011;3210;48.708;9.030;2023-03-01T07:27:50;22.83;;;13.03;;
6354;SDS011;3210;48.708;9.030;2023-03-01T07:30:17;21.60;;;13.63;;
6354;SDS011;3210;48.708;9.030;2023-03-01T07:32:46;22.93;;;13.13;;
6354;SDS011;3210;48.708;9.030;2023-03-01T07:35:13;15.83;;;8.13;;
6354;SDS011;3210;48.708;9.030;2023-03-01T07:37:40;23.57;;;13.37;;
6354;SDS011;3210;48.708;9.030;2023-03-01T07:40:07;26.77;;;13.17;;
6354;SDS011;3210;48.708;9.030;2023-03-01T07:42:35;26.10;;;13.63;;
6354;SDS011;3210;48.708;9.030;2023-03-01T07:45:02;21.70;;;12.50;;
6354;SDS011;3210;48.708;9.030;2023-03-01T07:47:30;22.17;;;12.07;;
6354;SDS011;3210;48.708;9.030;2023-03-01T07:49:58;26.33;;;14.47;;
6354;SDS011;3210;48.708;9.030;2023-03-01T07:52:26;19.33;;;12.40;;
6354;SDS011;3210;48.708;9.030;2023-03-01T07:54:52;24.70;;;12.40;;
6354;SDS011;3210;48.708;9.030;2023-03-01T07:57:19;29.63;;;13.10;;
6354;SDS011;3210;48.708;9.030;2023-03-01T07:59:46;16.70;;;11.70;;
6354;SDS011;3210;48.708;9.030;2023-03-01T08:02:13;29.63;;;14.70;;
6354;SDS011;3210;48.708;9.030;2023-03-01T08:04:40;23.93;;;13.50;;
6354;SDS011;3210;48.708;9.030;2023-03-01T08:07:08;25.43;;;12.13;;
6354;SDS011;3210;48.708;9.030;2023-03-01T08:09:35;24.30;;;13.67;;
6354;SDS011;3210;48.708;9.030;2023-03-01T08:12:02;23.77;;;13.97;;
6354;SDS011;3210;48.708;9.030;2023-03-01T08:14:30;24.93;;;15.10;;
6354;SDS011;3210;48.708;9.030;2023-03-01T08:16:57;29.77;;;12.80;;
6354;SDS011;3210;48.708;9.030;2023-03-01T08:19:24;24.13;;;13.83;;
6354;SDS011;3210;48.708;9.030;2023-03-01T08:21:53;25.03;;;12.47;;
6354;SDS011;3210;48.708;9.030;2023-03-01T08:24:21;22.50;;;14.17;;
6354;SDS011;3210;48.708;9.030;2023-03-01T08:26:47;26.97;;;14.00;;
6354;SDS011;3210;48.708;9.030;2023-03-01T08:29:14;27.60;;;14.53;;
6354;SDS011;3210;48.708;9.030;2023-03-01T08:31:41;25.17;;;13.20;;
6354;SDS011;3210;48.708;9.030;2023-03-01T08:34:09;25.93;;;14.23;;
6354;SDS011;3210;48.708;9.030;2023-03-01T08:36:38;22.73;;;13.53;;
6354;SDS011;3210;48.708;9.030;2023-03-01T08:39:06;25.47;;;14.73;;
6354;SDS011;3210;48.708;9.030;2023-03-01T08:41:35;28.87;;;12.30;;
6354;SDS011;3210;48.708;9.030;2023-03-01T08:44:04;33.57;;;15.47;;
6354;SDS011;3210;48.708;9.030;2023-03-01T08:46:32;28.27;;;14.70;;
6354;SDS011;3210;48.708;9.030;2023-03-01T08:49:03;20.97;;;11.33;;
6354;SDS011;3210;48.708;9.030;2023-03-01T08:51:30;25.43;;;13.57;;
6354;SDS011;3210;48.708;9.030;2023-03-01T08:54:01;26.63;;;15.47;;
6354;SDS011;3210;48.708;9.030;2023-03-01T08:56:28;25.77;;;13.23;;
6354;SDS011;3210;48.708;9.030;2023-03-01T08:58:56;23.23;;;13.87;;
6354;SDS011;3210;48.708;9.030;2023-03-01T09:01:23;25.00;;;13.17;;
6354;SDS011;3210;48.708;9.030;2023-03-01T09:03:50;26.50;;;15.40;;
6354;SDS011;3210;48.708;9.030;2023-03-01T09:06:17;23.73;;;13.63;;
6354;SDS011;3210;48.708;9.030;2023-03-01T09:08:45;24.10;;;14.30;;
6354;SDS011;3210;48.708;9.030;2023-03-01T09:11:14;28.40;;;14.47;;
6354;SDS011;3210;48.708;9.030;2023-03-01T09:13:42;27.50;;;14.33;;
6354;SDS011;3210;48.708;9.030;2023-03-01T09:16:11;23.97;;;15.33;;
6354;SDS011;3210;48.708;9.030;2023-03-01T09:18:39;25.33;;;15.67;;
6354;SDS011;3210;48.708;9.030;2023-03-01T09:21:06;23.23;;;14.17;;
6354;SDS011;3210;48.708;9.030;2023-03-01T09:23:34;29.87;;;15.30;;
6354;SDS011;3210;48.708;9.030;2023-03-01T09:26:03;27.43;;;15.73;;
6354;SDS011;3210;48.708;9.030;2023-03-01T09:28:30;30.60;;;13.60;;
6354;SDS011;3210;48.708;9.030;2023-03-01T09:30:57;31.40;;;15.20;;
6354;SDS011;3210;48.708;9.030;2023-03-01T09:33:27;25.47;;;14.63;;
6354;SDS011;3210;48.708;9.030;2023-03-01T09:35:57;26.60;;;14.83;;
6354;SDS011;3210;48.708;9.030;2023-03-01T09:38:24;23.83;;;13.60;;
6354;SDS011;3210;48.708;9.030;2023-03-01T09:40:51;27.10;;;14.80;;
6354;SDS011;3210;48.708;9.030;2023-03-01T09:43:19;25.57;;;15.33;;
6354;SDS011;3210;48.708;9.030;2023-03-01T09:45:52;28.47;;;14.23;;
6354;SDS011;3210;48.708;9.030;2023-03-01T09:48:22;25.43;;;13.33;;
6354;SDS011;3210;48.708;9.030;2023-03-01T09:50:54;25.47;;;13.60;;
6354;SDS011;3210;48.708;9.030;2023-03-01T09:53:21;20.70;;;13.97;;
6354;SDS011;3210;48.708;9.030;2023-03-01T09:55:54;28.60;;;15.43;;
6354;SDS011;3210;48.708;9.030;2023-03-01T09:58:36;25.07;;;14.60;;
6354;SDS011;3210;48.708;9.030;2023-03-01T10:01:13;18.30;;;10.93;;
6354;SDS011;3210;48.708;9.030;2023-03-01T10:04:00;20.90;;;13.43;;
6354;SDS011;3210;48.708;9.030;2023-03-01T10:06:51;23.60;;;14.40;;
6354;SDS011;3210;48.708;9.030;2023-03-01T10:09:27;29.60;;;14.50;;
6354;SDS011;3210;48.708;9.030;2023-03-01T10:11:58;27.93;;;14.60;;
6354;SDS011;3210;48.708;9.030;2023-03-01T10:14:29;34.67;;;16.60;;
6354;SDS011;3210;48.708;9.030;2023-03-01T10:17:01;27.00;;;14.07;;
6354;SDS011;3210;48.708;9.030;2023-03-01T10:19:31;26.57;;;13.50;;
6354;SDS011;3210;48.708;9.030;2023-03-01T10:22:05;25.70;;;15.83;;
6354;SDS011;3210;48.708;9.030;2023-03-01T10:24:39;26.23;;;14.03;;
6354;SDS011;3210;48.708;9.030;2023-03-01T10:27:06;32.90;;;14.87;;
6354;SDS011;3210;48.708;9.030;2023-03-01T10:29:38;22.57;;;14.37;;
6354;SDS011;3210;48.708;9.030;2023-03-01T10:32:09;24.80;;;15.67;;
6354;SDS011;3210;48.708;9.030;2023-03-01T10:34:37;32.63;;;15.33;;
6354;SDS011;3210;48.708;9.030;2023-03-01T10:37:10;26.37;;;13.63;;
6354;SDS011;3210;48.708;9.030;2023-03-01T10:39:53;26.37;;;15.20;;
6354;SDS011;3210;48.708;9.030;2023-03-01T10:42:22;23.27;;;14.90;;
6354;SDS011;3210;48.708;9.030;2023-03-01T10:44:53;24.60;;;13.83;;
6354;SDS011;3210;48.708;9.030;2023-03-01T10:47:21;24.60;;;14.10;;
6354;SDS011;3210;48.708;9.030;2023-03-01T10:49:55;24.63;;;13.83;;
6354;SDS011;3210;48.708;9.030;2023-03-01T10:52:27;25.60;;;13.03;;
6354;SDS011;3210;48.708;9.030;2023-03-01T10:54:56;23.90;;;13.70;;
6354;SDS011;3210;48.708;9.030;2023-03-01T10:57:35;26.33;;;13.90;;
6354;SDS011;3210;48.708;9.030;2023-03-01T11:00:15;18.03;;;12.90;;
6354;SDS011;3210;48.708;9.030;2023-03-01T11:02:47;23.10;;;12.77;;
6354;SDS011;3210;48.708;9.030;2023-03-01T11:05:17;20.60;;;13.20;;
6354;SDS011;3210;48.708;9.030;2023-03-01T11:07:51;25.67;;;14.20;;
6354;SDS011;3210;48.708;9.030;2023-03-01T11:10:20;20.53;;;13.13;;
6354;SDS011;3210;48.708;9.030;2023-03-01T11:12:48;18.70;;;11.80;;
6354;SDS011;3210;48.708;9.030;2023-03-01T11:15:24;19.13;;;13.57;;
6354;SDS011;3210;48.708;9.030;2023-03-01T11:17:53;23.27;;;12.87;;
6354;SDS011;3210;48.708;9.030;2023-03-01T11:20:27;24.13;;;14.10;;
6354;SDS011;3210;48.708;9.030;2023-03-01T11:22:59;25.53;;;13.53;;
6354;SDS011;3210;48.708;9.030;2023-03-01T11:25:31;22.00;;;13.87;;
6354;SDS011;3210;48.708;9.030;2023-03-01T11:28:00;19.20;;;12.77;;
6354;SDS011;3210;48.708;9.030;2023-03-01T11:30:30;27.13;;;14.83;;
6354;SDS011;3210;48.708;9.030;2023-03-01T11:33:03;20.10;;;13.10;;
6354;SDS011;3210;48.708;9.030;2023-03-01T11:35:41;20.17;;;12.43;;
6354;SDS011;3210;48.708;9.030;2023-03-01T11:38:16;26.03;;;14.03;;
6354;SDS011;3210;48.708;9.030;2023-03-01T11:40:48;23.53;;;12.97;;
6354;SDS011;3210;48.708;9.030;2023-03-01T11:43:20;30.53;;;14.23;;
6354;SDS011;3210;48.708;9.030;2023-03-01T11:45:53;21.03;;;13.20;;
6354;SDS011;3210;48.708;9.030;2023-03-01T11:48:50;27.30;;;12.67;;
6354;SDS011;3210;48.708;9.030;2023-03-01T11:51:25;24.50;;;13.50;;
6354;SDS011;3210;48.708;9.030;2023-03-01T11:54:09;21.90;;;12.53;;
6354;SDS011;3210;48.708;9.030;2023-03-01T11:56:54;20.60;;;12.77;;
6354;SDS011;3210;48.708;9.030;2023-03-01T11:59:30;28.33;;;13.50;;
6354;SDS011;3210;48.708;9.030;2023-03-01T12:05:18;21.10;;;13.87;;
6354;SDS011;3210;48.708;9.030;2023-03-01T12:07:52;20.13;;;11.23;;
6354;SDS011;3210;48.708;9.030;2023-03-01T12:10:25;21.80;;;14.13;;
6354;SDS011;3210;48.708;9.030;2023-03-01T12:15:54;19.57;;;12.47;;
6354;SDS011;3210;48.708;9.030;2023-03-01T12:18:32;19.33;;;10.30;;
6354;SDS011;3210;48.708;9.030;2023-03-01T12:21:09;25.07;;;13.97;;
6354;SDS011;3210;48.708;9.030;2023-03-01T12:26:38;25.43;;;14.10;;
6354;SDS011;3210;48.708;9.030;2023-03-01T12:29:16;21.60;;;12.63;;
6354;SDS011;3210;48.708;9.030;2023-03-01T12:32:00;20.00;;;12.40;;
6354;SDS011;3210;48.708;9.030;2023-03-01T12:34:58;21.57;;;13.30;;
6354;SDS011;3210;48.708;9.030;2023-03-01T12:37:49;24.90;;;12.00;;
6354;SDS011;3210;48.708;9.030;2023-03-01T12:40:27;21.90;;;11.30;;
6354;SDS011;3210;48.708;9.030;2023-03-01T12:43:06;19.70;;;13.10;;
6354;SDS011;3210;48.708;9.030;2023-03-01T12:45:43;21.87;;;12.80;;
6354;SDS011;3210;48.708;9.030;2023-03-01T12:48:21;21.93;;;11.30;;
6354;SDS011;3210;48.708;9.030;2023-03-01T12:50:57;15.10;;;8.80;;
6354;SDS011;3210;48.708;9.030;2023-03-01T12:53:28;22.17;;;13.53;;
6354;SDS011;3210;48.708;9.030;2023-03-01T12:55:58;17.53;;;10.90;;
6354;SDS011;3210;48.708;9.030;2023-03-01T12:58:29;20.70;;;11.90;;
6354;SDS011;3210;48.708;9.030;2023-03-01T13:01:04;19.10;;;11.83;;
6354;SDS011;3210;48.708;9.030;2023-03-01T13:03:44;21.30;;;11.83;;
6354;SDS011;3210;48.708;9.030;2023-03-01T13:06:30;18.50;;;12.30;;
6354;SDS011;3210;48.708;9.030;2023-03-01T13:09:04;16.23;;;10.63;;
6354;SDS011;3210;48.708;9.030;2023-03-01T13:11:40;17.87;;;12.43;;
6354;SDS011;3210;48.708;9.030;2023-03-01T13:17:30;13.63;;;9.90;;
6354;SDS011;3210;48.708;9.030;2023-03-01T13:19:59;18.80;;;10.33;;
6354;SDS011;3210;48.708;9.030;2023-03-01T13:22:28;18.03;;;10.57;;
6354;SDS011;3210;48.708;9.030;2023-03-01T13:25:00;16.30;;;8.77;;
6354;SDS011;3210;48.708;9.030;2023-03-01T13:27:37;19.20;;;10.67;;
6354;SDS011;3210;48.708;9.030;2023-03-01T13:30:12;17.63;;;9.80;;
6354;SDS011;3210;48.708;9.030;2023-03-01T13:33:33;24.40;;;11.57;;
6354;SDS011;3210;48.708;9.030;2023-03-01T13:36:07;16.50;;;10.80;;
6354;SDS011;3210;48.708;9.030;2023-03-01T13:38:47;16.50;;;9.43;;
6354;SDS011;3210;48.708;9.030;2023-03-01T13:44:20;15.60;;;9.53;;
6354;SDS011;3210;48.708;9.030;2023-03-01T13:46:55;16.80;;;10.20;;
6354;SDS011;3210;48.708;9.030;2023-03-01T13:49:25;22.73;;;11.47;;
6354;SDS011;3210;48.708;9.030;2023-03-01T13:51:54;16.23;;;9.73;;
6354;SDS011;3210;48.708;9.030;2023-03-01T13:54:24;24.53;;;10.80;;
6354;SDS011;3210;48.708;9.030;2023-03-01T13:56:54;24.10;;;11.50;;
6354;SDS011;3210;48.708;9.030;2023-03-01T13:59:22;17.83;;;11.20;;
6354;SDS011;3210;48.708;9.030;2023-03-01T14:01:52;20.67;;;11.57;;
6354;SDS011;3210;48.708;9.030;2023-03-01T14:04:21;21.70;;;12.33;;
6354;SDS011;3210;48.708;9.030;2023-03-01T14:06:50;19.67;;;10.90;;
6354;SDS011;3210;48.708;9.030;2023-03-01T14:09:18;21.57;;;11.40;;
6354;SDS011;3210;48.708;9.030;2023-03-01T14:12:01;24.90;;;12.50;;
6354;SDS011;3210;48.708;9.030;2023-03-01T14:14:42;14.27;;;8.40;;
6354;SDS011;3210;48.708;9.030;2023-03-01T14:17:17;18.10;;;11.77;;
6354;SDS011;3210;48.708;9.030;2023-03-01T14:19:54;15.50;;;11.50;;
6354;SDS011;3210;48.708;9.030;2023-03-01T14:22:23;18.23;;;11.30;;
6354;SDS011;3210;48.708;9.030;2023-03-01T14:24:55;19.77;;;12.63;;
6354;SDS011;3210;48.708;9.030;2023-03-01T14:27:25;18.97;;;11.33;;
6354;SDS011;3210;48.708;9.030;2023-03-01T14:29:56;25.00;;;12.83;;
6354;SDS011;3210;48.708;9.030;2023-03-01T14:32:26;18.77;;;11.50;;
6354;SDS011;3210;48.708;9.030;2023-03-01T14:34:54;22.33;;;10.80;;
6354;SDS011;3210;48.708;9.030;2023-03-01T14:37:23;19.53;;;9.23;;
6354;SDS011;3210;48.708;9.030;2023-03-01T14:39:51;19.50;;;12.90;;
6354;SDS011;3210;48.708;9.030;2023-03-01T14:42:19;18.50;;;11.53;;
6354;SDS011;3210;48.708;9.030;2023-03-01T14:44:48;30.13;;;13.73;;
6354;SDS011;3210;48.708;9.030;2023-03-01T14:47:20;21.27;;;13.03;;
6354;SDS011;3210;48.708;9.030;2023-03-01T14:49:56;19.63;;;12.37;;
6354;SDS011;3210;48.708;9.030;2023-03-01T14:52:27;21.60;;;12.40;;
6354;SDS011;3210;48.708;9.030;2023-03-01T14:55:00;24.27;;;12.70;;
6354;SDS011;3210;48.708;9.030;2023-03-01T14:57:29;22.30;;;13.00;;
6354;SDS011;3210;48.708;9.030;2023-03-01T14:59:57;21.77;;;13.63;;
6354;SDS011;3210;48.708;9.030;2023-03-01T15:02:30;23.53;;;14.10;;
6354;SDS011;3210;48.708;9.030;2023-03-01T15:05:00;25.43;;;13.03;;
6354;SDS011;3210;48.708;9.030;2023-03-01T15:07:30;27.33;;;14.97;;
6354;SDS011;3210;48.708;9.030;2023-03-01T15:09:59;22.20;;;13.60;;
6354;SDS011;3210;48.708;9.030;2023-03-01T15:12:37;16.90;;;10.50;;
6354;SDS011;3210;48.708;9.030;2023-03-01T15:18:05;23.03;;;13.80;;
6354;SDS011;3210;48.708;9.030;2023-03-01T15:20:41;24.77;;;14.00;;
6354;SDS011;3210;48.708;9.030;2023-03-01T15:23:13;31.00;;;14.53;;